Time;durP1;ratioP1;P1;durP2;ratioP2;P2;SDS_P1;SDS_P2;PMS_P1;PMS_P2;Temp;Humidity;BMP_temperature;BMP_pressure;BME280_temperature;BME280_humidity;BME280_pressure;Samples;Min_cycle;Max_cycle;Signal;HPM_P1;HPM_P2
2023/04/04 00:01:59;;;;;;;8.05;3.90;;;4.10;99.90;;;;;;4937770;29;20191;-76
2023/04/04 00:04:26;;;;;;;9.75;4.50;;;4.10;99.90;;;;;;4937682;29;20222;-75
2023/04/04 00:06:52;;;;;;;10.95;3.92;;;4.10;99.90;;;;;;4937637;29;20179;-76
2023/04/04 00:09:19;;;;;;;9.88;4.10;;;4.10;99.90;;;;;;4937913;29;20230;-76
2023/04/04 00:11:45;;;;;;;8.27;4.20;;;4.10;99.90;;;;;;4936721;29;20219;-77
2023/04/04 00:14:11;;;;;;;9.73;3.80;;;4.10;99.90;;;;;;4936556;29;20192;-76
2023/04/04 00:16:37;;;;;;;7.47;4.13;;;4.10;99.90;;;;;;4951998;29;20255;-78
2023/04/04 00:19:03;;;;;;;8.43;4.20;;;4.10;99.90;;;;;;4937380;29;20217;-76
2023/04/04 00:21:29;;;;;;;13.82;4.60;;;4.10;99.90;;;;;;4937621;29;20642;-75
2023/04/04 00:23:58;;;;;;;10.10;4.35;;;4.00;99.90;;;;;;4937219;29;20576;-76
2023/04/04 00:26:27;;;;;;;8.20;4.25;;;4.00;99.90;;;;;;4937282;29;20242;-76
2023/04/04 00:28:53;;;;;;;8.02;4.60;;;3.90;99.90;;;;;;4951803;29;20240;-77
2023/04/04 00:31:20;;;;;;;9.95;4.88;;;4.00;99.90;;;;;;4951729;29;20623;-80
2023/04/04 00:33:46;;;;;;;12.43;6.47;;;3.90;99.90;;;;;;4951524;28;20227;-79
2023/04/04 00:36:12;;;;;;;15.88;6.53;;;4.00;99.90;;;;;;4936840;29;20188;-77
2023/04/04 00:38:37;;;;;;;14.63;6.22;;;4.00;99.90;;;;;;4935834;29;20187;-76
2023/04/04 00:41:05;;;;;;;10.00;4.85;;;3.90;99.90;;;;;;4935326;29;20655;-75
2023/04/04 00:43:32;;;;;;;10.57;5.15;;;3.90;99.90;;;;;;4937411;29;20262;-77
2023/04/04 00:45:57;;;;;;;11.60;4.95;;;3.90;99.90;;;;;;4935544;29;20267;-75
2023/04/04 00:48:23;;;;;;;9.43;5.32;;;3.90;99.90;;;;;;4920386;29;20191;-76
2023/04/04 00:50:49;;;;;;;10.48;4.95;;;3.80;99.90;;;;;;4919826;29;20365;-75
2023/04/04 00:53:16;;;;;;;11.88;5.32;;;3.80;99.90;;;;;;4936110;29;20187;-75
2023/04/04 00:55:42;;;;;;;10.18;4.90;;;3.80;99.90;;;;;;4935719;29;20615;-77
2023/04/04 00:58:09;;;;;;;10.38;5.07;;;3.80;99.90;;;;;;4951368;29;20203;-77
2023/04/04 01:00:36;;;;;;;9.82;5.05;;;3.70;99.90;;;;;;4951382;29;20628;-76
2023/04/04 01:03:04;;;;;;;9.40;5.05;;;3.70;99.90;;;;;;4951336;29;20207;-75
2023/04/04 01:05:33;;;;;;;11.27;4.93;;;3.70;99.90;;;;;;4919415;29;20183;-75
2023/04/04 01:08:00;;;;;;;10.18;5.40;;;3.70;99.90;;;;;;4936527;29;20194;-75
2023/04/04 01:10:26;;;;;;;11.60;5.38;;;3.60;99.90;;;;;;4919212;29;20183;-75
2023/04/04 01:12:52;;;;;;;10.13;5.25;;;3.60;99.90;;;;;;4935199;29;20191;-76
2023/04/04 01:15:18;;;;;;;13.88;5.45;;;3.60;99.90;;;;;;4920093;29;20183;-75
2023/04/04 01:17:44;;;;;;;10.88;5.40;;;3.60;99.90;;;;;;4935134;29;20278;-76
2023/04/04 01:20:14;;;;;;;14.13;5.55;;;3.60;99.90;;;;;;4935144;29;20275;-76
2023/04/04 01:22:49;;;;;;;11.90;5.70;;;3.50;99.90;;;;;;4950736;28;20246;-75
2023/04/04 01:25:18;;;;;;;9.63;5.47;;;3.50;99.90;;;;;;4935354;29;20250;-76
2023/04/04 01:27:47;;;;;;;9.30;5.22;;;3.50;99.90;;;;;;4935959;29;20223;-76
2023/04/04 01:30:16;;;;;;;9.30;5.90;;;3.40;99.90;;;;;;4951027;29;20278;-75
2023/04/04 01:32:55;;;;;;;12.10;5.70;;;3.40;99.90;;;;;;4950723;29;20207;-76
2023/04/04 01:35:42;;;;;;;10.82;5.32;;;3.40;99.90;;;;;;4936272;29;20191;-76
2023/04/04 01:38:27;;;;;;;10.15;5.05;;;3.40;99.90;;;;;;4936668;29;20168;-76
2023/04/04 01:41:07;;;;;;;9.82;5.07;;;3.30;99.90;;;;;;4935638;29;20520;-77
2023/04/04 01:43:35;;;;;;;9.40;5.53;;;3.30;99.90;;;;;;4950643;29;20234;-76
2023/04/04 01:46:02;;;;;;;13.07;5.68;;;3.30;99.90;;;;;;4935110;29;20267;-76
2023/04/04 01:48:28;;;;;;;12.13;5.70;;;3.30;99.90;;;;;;4951508;29;20183;-76
2023/04/04 01:50:58;;;;;;;11.40;5.22;;;3.20;99.90;;;;;;4919292;29;20222;-76
2023/04/04 01:53:26;;;;;;;8.73;6.00;;;3.20;99.90;;;;;;4934600;29;20195;-75
2023/04/04 01:55:53;;;;;;;10.32;5.68;;;3.10;99.90;;;;;;4951397;29;20195;-75
2023/04/04 01:58:20;;;;;;;11.82;5.65;;;3.10;99.90;;;;;;4950583;28;20546;-75
2023/04/04 02:00:48;;;;;;;13.68;6.38;;;3.10;99.90;;;;;;4934388;29;20211;-75
2023/04/04 02:03:14;;;;;;;13.43;6.40;;;3.00;99.90;;;;;;4951261;29;20282;-75
2023/04/04 02:05:40;;;;;;;9.85;5.60;;;3.00;99.90;;;;;;4918939;29;20262;-76
2023/04/04 02:08:06;;;;;;;9.90;5.95;;;3.00;99.90;;;;;;4950804;29;20644;-75
2023/04/04 02:10:41;;;;;;;11.27;5.65;;;3.00;99.90;;;;;;4935428;29;20218;-76
2023/04/04 02:13:07;;;;;;;12.00;6.35;;;2.90;99.90;;;;;;4934631;29;20196;-76
2023/04/04 02:15:34;;;;;;;10.55;5.95;;;2.90;99.90;;;;;;4936036;29;20632;-75
2023/04/04 02:18:00;;;;;;;14.23;6.45;;;2.90;99.90;;;;;;4935346;29;20278;-75
2023/04/04 02:20:26;;;;;;;13.35;5.45;;;2.90;99.90;;;;;;4951207;28;20197;-77
2023/04/04 02:22:54;;;;;;;11.55;4.70;;;2.80;99.90;;;;;;4934960;29;20184;-75
2023/04/04 02:25:24;;;;;;;10.52;4.90;;;2.70;99.90;;;;;;4934648;29;20640;-75
2023/04/04 02:27:50;;;;;;;9.88;4.18;;;2.80;99.90;;;;;;4935700;29;20219;-76
2023/04/04 02:30:16;;;;;;;10.05;4.45;;;2.70;99.90;;;;;;4936344;29;20191;-76
2023/04/04 02:32:42;;;;;;;14.48;4.70;;;2.70;99.90;;;;;;4950437;28;20219;-76
2023/04/04 02:35:12;;;;;;;8.35;4.03;;;2.70;99.90;;;;;;4937987;29;20187;-76
2023/04/04 02:37:38;;;;;;;8.30;4.32;;;2.70;99.90;;;;;;4954166;29;20195;-75
2023/04/04 02:40:08;;;;;;;7.20;4.10;;;2.70;99.90;;;;;;4939035;29;20194;-75
2023/04/04 02:42:40;;;;;;;7.82;4.50;;;2.60;99.90;;;;;;4937797;29;20234;-76
2023/04/04 02:45:07;;;;;;;8.68;3.90;;;2.60;99.90;;;;;;4938049;29;20179;-75
2023/04/04 02:47:32;;;;;;;7.85;3.75;;;2.60;99.90;;;;;;4938334;29;20339;-76
2023/04/04 02:49:58;;;;;;;10.73;3.92;;;2.60;99.90;;;;;;4954407;29;20632;-75
2023/04/04 02:52:25;;;;;;;6.68;3.67;;;2.50;99.90;;;;;;4938317;29;20568;-75
2023/04/04 02:54:51;;;;;;;7.00;4.05;;;2.50;99.90;;;;;;4937976;29;20191;-75
2023/04/04 02:57:28;;;;;;;8.82;3.80;;;2.60;99.90;;;;;;4953825;29;20194;-75
2023/04/04 02:59:54;;;;;;;6.38;4.07;;;2.50;99.90;;;;;;4938953;29;20192;-76
2023/04/04 03:02:19;;;;;;;10.50;3.75;;;2.50;99.90;;;;;;4954002;29;20202;-76
2023/04/04 03:04:45;;;;;;;8.27;3.90;;;2.50;99.90;;;;;;4922713;29;20628;-75
2023/04/04 03:07:11;;;;;;;9.23;3.67;;;2.40;99.90;;;;;;4937118;29;20616;-75
2023/04/04 03:09:37;;;;;;;7.70;4.07;;;2.40;99.90;;;;;;4938394;29;20207;-75
2023/04/04 03:12:04;;;;;;;12.18;4.28;;;2.50;99.90;;;;;;4939297;29;20274;-75
2023/04/04 03:14:30;;;;;;;7.18;3.97;;;2.50;99.90;;;;;;4937357;29;20214;-75
2023/04/04 03:16:56;;;;;;;7.35;3.83;;;2.50;99.90;;;;;;4953372;28;20573;-76
2023/04/04 03:19:23;;;;;;;10.30;3.85;;;2.40;99.90;;;;;;4953391;28;20609;-75
2023/04/04 03:21:50;;;;;;;11.25;4.55;;;2.50;99.90;;;;;;4937428;29;20210;-76
2023/04/04 03:24:17;;;;;;;11.02;4.70;;;2.40;99.90;;;;;;4938624;29;20288;-75
2023/04/04 03:26:43;;;;;;;8.20;5.18;;;2.40;99.90;;;;;;4938351;29;20190;-76
2023/04/04 03:29:11;;;;;;;12.30;3.90;;;2.40;99.90;;;;;;4938083;29;20276;-75
2023/04/04 03:31:37;;;;;;;9.52;4.18;;;2.40;99.90;;;;;;4921285;29;20299;-76
2023/04/04 03:34:03;;;;;;;8.82;4.20;;;2.30;99.90;;;;;;4953187;29;20603;-75
2023/04/04 03:36:29;;;;;;;7.50;3.97;;;2.30;99.90;;;;;;4952858;29;20190;-77
2023/04/04 03:38:56;;;;;;;10.15;4.57;;;2.30;99.90;;;;;;4952593;29;20534;-76
2023/04/04 03:41:21;;;;;;;9.88;4.50;;;2.30;99.90;;;;;;4936925;29;20187;-79
2023/04/04 03:43:47;;;;;;;9.07;4.38;;;2.30;99.90;;;;;;4952621;29;20184;-77
2023/04/04 03:46:13;;;;;;;7.78;4.03;;;2.20;99.90;;;;;;4936666;29;20202;-77
2023/04/04 03:48:39;;;;;;;8.30;3.83;;;2.30;99.90;;;;;;4937005;29;20180;-76
2023/04/04 03:51:08;;;;;;;9.65;4.03;;;2.30;99.90;;;;;;4952813;29;20219;-77
2023/04/04 03:53:36;;;;;;;8.70;4.28;;;2.20;99.90;;;;;;4936890;29;20291;-77
2023/04/04 03:56:01;;;;;;;9.57;4.10;;;2.20;99.90;;;;;;4937288;28;20643;-76
2023/04/04 03:58:29;;;;;;;7.38;4.07;;;2.20;99.90;;;;;;4937771;29;20187;-77
2023/04/04 04:00:54;;;;;;;7.22;3.85;;;2.20;99.90;;;;;;4952728;29;20646;-76
2023/04/04 04:03:20;;;;;;;15.68;4.30;;;2.20;99.90;;;;;;4952216;29;20187;-77
2023/04/04 04:05:46;;;;;;;10.05;3.92;;;2.20;99.90;;;;;;4936318;29;20206;-76
2023/04/04 04:08:12;;;;;;;10.13;3.92;;;2.20;99.90;;;;;;4938040;29;20183;-75
2023/04/04 04:10:38;;;;;;;11.82;3.65;;;2.20;99.90;;;;;;4936707;29;20612;-76
2023/04/04 04:13:04;;;;;;;9.18;4.05;;;2.20;99.90;;;;;;4937717;29;20219;-76
2023/04/04 04:15:30;;;;;;;8.65;4.05;;;2.20;99.90;;;;;;4935808;29;20186;-79
2023/04/04 04:17:58;;;;;;;6.15;3.70;;;2.20;99.90;;;;;;4936034;29;20183;-76
2023/04/04 04:20:26;;;;;;;6.85;3.45;;;2.20;99.90;;;;;;4952042;29;20586;-77
2023/04/04 04:22:52;;;;;;;10.43;3.53;;;2.20;99.90;;;;;;4951871;29;20191;-77
2023/04/04 04:25:18;;;;;;;7.20;3.67;;;2.10;99.90;;;;;;4952587;29;20195;-75
2023/04/04 04:28:11;;;;;;;7.38;3.45;;;2.20;99.90;;;;;;4937560;29;20231;-76
2023/04/04 04:30:37;;;;;;;6.72;3.70;;;2.10;99.90;;;;;;4935953;29;20218;-76
2023/04/04 04:33:03;;;;;;;6.15;3.00;;;2.10;99.90;;;;;;4952061;28;20227;-76
2023/04/04 04:35:37;;;;;;;6.68;3.30;;;2.10;99.90;;;;;;4952020;28;20183;-81
2023/04/04 04:38:03;;;;;;;6.35;3.00;;;2.10;99.90;;;;;;4952187;29;20202;-75
2023/04/04 04:40:29;;;;;;;9.07;4.10;;;2.10;99.90;;;;;;4935842;29;20187;-77
2023/04/04 04:43:01;;;;;;;7.47;4.50;;;2.10;99.90;;;;;;4935917;29;20681;-76
2023/04/04 04:45:27;;;;;;;10.10;4.50;;;2.10;99.90;;;;;;4919680;29;20290;-77
2023/04/04 04:48:04;;;;;;;9.75;4.50;;;2.10;99.90;;;;;;4921264;29;20574;-76
2023/04/04 04:50:31;;;;;;;6.60;3.88;;;2.10;99.90;;;;;;4935846;29;20225;-76
2023/04/04 04:52:57;;;;;;;8.10;4.35;;;2.10;99.90;;;;;;4936009;29;20379;-76
2023/04/04 04:55:24;;;;;;;12.48;5.38;;;2.10;99.90;;;;;;4919453;29;20588;-76
2023/04/04 04:58:00;;;;;;;8.25;4.60;;;2.10;99.90;;;;;;4951884;29;20203;-75
2023/04/04 05:00:27;;;;;;;9.27;4.82;;;2.00;99.90;;;;;;4951158;29;20294;-76
2023/04/04 05:02:59;;;;;;;13.63;5.10;;;1.90;99.90;;;;;;4951293;29;20190;-76
2023/04/04 05:05:33;;;;;;;13.15;4.93;;;2.00;99.90;;;;;;4936024;29;20167;-76
2023/04/04 05:08:04;;;;;;;21.15;8.30;;;2.00;99.90;;;;;;4936425;29;20199;-75
2023/04/04 05:10:30;;;;;;;26.40;8.15;;;1.90;99.90;;;;;;4934961;29;20235;-75
2023/04/04 05:12:56;;;;;;;14.10;6.10;;;1.90;99.90;;;;;;4935005;29;20277;-75
2023/04/04 05:15:28;;;;;;;13.48;5.38;;;2.00;99.90;;;;;;4951503;29;20218;-79
2023/04/04 05:17:55;;;;;;;13.23;5.13;;;2.00;99.90;;;;;;4935091;29;20215;-75
2023/04/04 05:20:22;;;;;;;9.30;4.72;;;2.00;99.90;;;;;;4935357;29;20286;-75
2023/04/04 05:22:50;;;;;;;17.80;5.78;;;2.00;99.90;;;;;;4935299;29;20191;-75
2023/04/04 05:25:20;;;;;;;12.30;5.72;;;2.00;99.90;;;;;;4935888;29;20187;-75
2023/04/04 05:27:47;;;;;;;11.82;4.70;;;2.00;99.90;;;;;;4934995;29;20695;-74
2023/04/04 05:30:15;;;;;;;7.97;4.43;;;2.10;99.90;;;;;;4935145;29;20179;-74
2023/04/04 05:32:52;;;;;;;8.30;4.55;;;2.20;99.90;;;;;;4950222;29;20202;-74
2023/04/04 05:35:24;;;;;;;9.43;4.63;;;2.20;99.90;;;;;;4950672;29;20238;-74
2023/04/04 05:37:50;;;;;;;9.48;3.85;;;2.20;99.90;;;;;;4951019;29;20183;-75
2023/04/04 05:40:17;;;;;;;9.57;4.03;;;2.30;99.90;;;;;;4935630;29;20187;-75
2023/04/04 05:42:59;;;;;;;15.15;5.40;;;2.40;99.90;;;;;;4934834;29;20175;-75
2023/04/04 05:45:32;;;;;;;14.63;6.80;;;2.40;99.90;;;;;;4920289;29;20718;-76
2023/04/04 05:47:59;;;;;;;11.57;6.63;;;2.40;99.90;;;;;;4950687;29;20632;-75
2023/04/04 05:50:27;;;;;;;10.20;5.65;;;2.50;99.90;;;;;;4936148;29;20191;-74
2023/04/04 05:52:58;;;;;;;12.77;5.13;;;2.50;99.90;;;;;;4935435;29;20660;-75
2023/04/04 05:55:25;;;;;;;11.05;4.78;;;2.50;99.90;;;;;;4919294;29;20215;-75
2023/04/04 05:57:55;;;;;;;10.65;4.07;;;2.60;99.90;;;;;;4936277;29;20219;-75
2023/04/04 06:00:30;;;;;;;9.15;4.00;;;2.50;99.90;;;;;;4935030;29;20180;-74
2023/04/04 06:03:03;;;;;;;14.95;3.97;;;2.60;99.90;;;;;;4951576;29;20266;-74
2023/04/04 06:05:29;;;;;;;6.88;4.10;;;2.60;99.90;;;;;;4951343;29;20551;-74
2023/04/04 06:07:55;;;;;;;8.95;5.07;;;2.70;99.90;;;;;;4934989;29;20210;-74
2023/04/04 06:10:21;;;;;;;13.52;4.68;;;2.70;99.90;;;;;;4954462;29;20279;-73
2023/04/04 06:12:47;;;;;;;7.30;4.20;;;2.80;99.90;;;;;;4938298;29;20221;-74
2023/04/04 06:15:13;;;;;;;7.65;4.13;;;3.10;99.90;;;;;;4954545;29;20629;-73
2023/04/04 06:17:41;;;;;;;7.90;3.70;;;3.50;99.90;;;;;;4954303;29;20686;-74
2023/04/04 06:20:07;;;;;;;9.23;3.95;;;3.50;99.90;;;;;;4954139;29;20179;-79
2023/04/04 06:22:33;;;;;;;8.38;3.95;;;3.50;99.90;;;;;;4938925;29;20254;-74
2023/04/04 06:25:00;;;;;;;15.15;5.00;;;3.50;99.90;;;;;;4938745;29;20187;-75
2023/04/04 06:27:28;;;;;;;6.95;3.83;;;3.40;99.90;;;;;;4954282;29;20239;-74
2023/04/04 06:29:55;;;;;;;12.27;4.10;;;3.40;99.90;;;;;;4923392;29;20214;-74
2023/04/04 06:32:22;;;;;;;5.93;4.13;;;3.40;99.90;;;;;;4938676;29;20302;-74
2023/04/04 06:34:47;;;;;;;9.02;4.28;;;3.40;99.90;;;;;;4937990;29;20274;-75
2023/04/04 06:37:16;;;;;;;8.48;3.97;;;3.50;99.90;;;;;;4938112;29;20592;-74
2023/04/04 06:39:51;;;;;;;7.95;4.35;;;3.40;99.90;;;;;;4954747;29;20183;-74
2023/04/04 06:42:21;;;;;;;10.98;3.75;;;3.50;99.90;;;;;;4953158;29;20168;-74
2023/04/04 06:44:49;;;;;;;7.05;4.15;;;3.50;99.90;;;;;;4923242;29;20180;-78
2023/04/04 06:47:15;;;;;;;8.65;4.15;;;3.60;99.90;;;;;;4941071;29;20203;-74
2023/04/04 06:49:41;;;;;;;5.88;3.85;;;3.80;99.90;;;;;;4954272;29;20186;-78
2023/04/04 06:52:07;;;;;;;7.90;4.05;;;4.00;99.90;;;;;;4938151;29;20647;-76
2023/04/04 06:54:34;;;;;;;8.88;4.28;;;4.20;99.90;;;;;;4938479;29;20585;-75
2023/04/04 06:57:00;;;;;;;10.05;4.45;;;4.30;99.90;;;;;;4938608;29;20195;-75
2023/04/04 06:59:26;;;;;;;9.07;3.75;;;4.40;99.90;;;;;;4937475;29;20521;-74
2023/04/04 07:01:52;;;;;;;6.88;3.75;;;4.50;99.90;;;;;;4953628;29;20638;-74
2023/04/04 07:04:19;;;;;;;8.30;4.13;;;4.60;99.90;;;;;;4938839;29;20206;-75
2023/04/04 07:06:44;;;;;;;8.48;3.45;;;4.70;99.90;;;;;;4938428;29;20234;-75
2023/04/04 07:09:10;;;;;;;5.95;3.28;;;4.80;99.90;;;;;;4938470;29;20183;-75
2023/04/04 07:11:37;;;;;;;8.15;3.30;;;4.80;99.90;;;;;;4938531;29;20222;-80
2023/04/04 07:14:03;;;;;;;7.00;3.28;;;5.00;99.90;;;;;;4937655;29;20195;-75
2023/04/04 07:16:28;;;;;;;14.73;4.32;;;5.50;99.90;;;;;;4938707;29;20182;-75
2023/04/04 07:18:54;;;;;;;9.32;3.50;;;6.40;99.90;;;;;;4952748;28;20237;-77
2023/04/04 07:21:20;;;;;;;10.55;4.30;;;7.00;99.90;;;;;;4938906;29;20278;-75
2023/04/04 07:23:46;;;;;;;6.95;3.40;;;7.40;99.90;;;;;;4937261;29;20226;-75
2023/04/04 07:26:12;;;;;;;11.48;3.10;;;7.50;99.90;;;;;;4939098;29;20260;-77
2023/04/04 07:28:37;;;;;;;6.72;3.38;;;7.60;99.90;;;;;;4938073;29;20227;-76
2023/04/04 07:31:03;;;;;;;6.05;3.15;;;7.80;99.90;;;;;;4938334;29;20210;-75
2023/04/04 07:33:29;;;;;;;8.35;3.55;;;7.90;99.90;;;;;;4938153;29;20258;-76
2023/04/04 07:35:55;;;;;;;5.85;3.00;;;8.00;99.90;;;;;;4938525;29;20183;-76
2023/04/04 07:38:20;;;;;;;7.07;2.80;;;8.10;99.90;;;;;;4938662;29;20231;-76
2023/04/04 07:40:49;;;;;;;5.45;2.90;;;8.70;99.90;;;;;;4938998;29;20644;-76
2023/04/04 07:43:15;;;;;;;6.50;2.70;;;10.10;99.90;;;;;;4938445;29;20175;-82
2023/04/04 07:45:41;;;;;;;9.50;2.85;;;11.90;97.60;;;;;;4936830;28;20198;-75
2023/04/04 07:48:06;;;;;;;118.97;15.05;;;13.60;92.80;;;;;;4936950;29;20183;-76
2023/04/04 07:50:32;;;;;;;259.00;68.88;;;15.10;85.70;;;;;;4940002;29;20641;-75
2023/04/04 07:52:58;;;;;;;21.27;7.75;;;16.10;76.30;;;;;;4938793;29;20318;-77
2023/04/04 07:55:24;;;;;;;12.48;4.95;;;17.20;70.70;;;;;;4955481;29;20199;-80
2023/04/04 07:57:51;;;;;;;5.90;2.97;;;18.30;64.70;;;;;;4937632;29;20263;-78
2023/04/04 08:00:20;;;;;;;11.60;3.10;;;19.20;59.00;;;;;;4936861;29;20183;-81
2023/04/04 08:02:52;;;;;;;6.65;2.13;;;20.00;54.30;;;;;;4937353;29;20183;-80
2023/04/04 08:05:18;;;;;;;5.95;2.28;;;20.70;52.10;;;;;;4938074;29;20612;-77
2023/04/04 08:07:43;;;;;;;5.72;2.00;;;21.40;49.80;;;;;;4937721;29;20175;-86
2023/04/04 08:10:10;;;;;;;6.07;2.25;;;22.20;47.30;;;;;;4936212;29;20176;-77
2023/04/04 08:12:35;;;;;;;4.10;1.88;;;22.60;45.10;;;;;;4936276;29;20306;-78
2023/04/04 08:15:01;;;;;;;5.38;2.10;;;23.30;43.50;;;;;;4937901;29;20274;-77
2023/04/04 08:17:27;;;;;;;6.32;2.17;;;23.70;41.80;;;;;;4937007;29;20523;-78
2023/04/04 08:19:53;;;;;;;4.70;2.10;;;24.20;40.50;;;;;;4936963;29;20516;-77
2023/04/04 08:22:19;;;;;;;5.07;1.95;;;24.90;38.90;;;;;;4937672;29;20190;-77
2023/04/04 08:24:45;;;;;;;3.78;2.10;;;25.00;36.90;;;;;;4935941;29;20543;-77
2023/04/04 08:27:11;;;;;;;6.13;2.00;;;25.20;36.00;;;;;;4936659;29;20635;-79
2023/04/04 08:29:37;;;;;;;631.63;91.30;;;25.80;34.80;;;;;;4935898;29;20311;-80
2023/04/04 08:32:03;;;;;;;12.48;3.70;;;25.80;33.60;;;;;;4936974;29;20747;-81
2023/04/04 08:34:29;;;;;;;6.40;2.20;;;25.80;32.90;;;;;;4936857;29;20234;-78
2023/04/04 08:36:56;;;;;;;6.05;2.33;;;26.30;32.40;;;;;;4936784;29;20194;-78
2023/04/04 08:39:21;;;;;;;6.57;2.20;;;26.40;31.30;;;;;;4937097;29;20203;-77
2023/04/04 08:41:56;;;;;;;8.57;2.10;;;26.90;30.80;;;;;;4936984;29;20650;-78
2023/04/04 08:44:25;;;;;;;5.10;1.90;;;27.30;30.30;;;;;;4937310;29;20301;-79
2023/04/04 08:46:51;;;;;;;4.65;2.13;;;27.70;29.60;;;;;;4936611;29;20198;-78
2023/04/04 08:49:21;;;;;;;4.25;1.80;;;27.80;28.80;;;;;;4937557;29;20209;-81
2023/04/04 08:51:48;;;;;;;9.45;2.28;;;27.90;28.10;;;;;;4920838;29;20203;-79
2023/04/04 08:54:16;;;;;;;3.30;1.83;;;27.90;27.70;;;;;;4936623;29;20189;-79
2023/04/04 08:56:42;;;;;;;5.10;1.90;;;27.80;27.60;;;;;;4951466;29;20613;-82
2023/04/04 08:59:10;;;;;;;3.90;1.75;;;28.00;27.20;;;;;;4936994;29;20274;-79
2023/04/04 09:01:36;;;;;;;7.72;2.15;;;28.20;26.80;;;;;;4936167;29;20183;-83
2023/04/04 09:04:03;;;;;;;3.90;1.90;;;28.20;26.50;;;;;;4935402;29;20241;-80
2023/04/04 09:06:29;;;;;;;5.18;1.90;;;28.20;25.90;;;;;;4936519;29;20542;-79
2023/04/04 09:08:58;;;;;;;4.35;2.03;;;28.30;25.90;;;;;;4951712;29;20642;-82
2023/04/04 09:11:26;;;;;;;5.68;1.80;;;28.30;25.40;;;;;;4936263;29;20294;-82
2023/04/04 09:13:55;;;;;;;6.75;2.03;;;27.70;25.40;;;;;;4936223;29;20191;-77
2023/04/04 09:16:21;;;;;;;4.85;1.83;;;27.50;25.60;;;;;;4936493;29;20183;-80
2023/04/04 09:18:46;;;;;;;4.95;2.00;;;27.90;25.70;;;;;;4936652;29;20183;-78
2023/04/04 09:21:12;;;;;;;6.35;2.10;;;28.10;25.50;;;;;;4936546;29;20747;-83
2023/04/04 09:23:38;;;;;;;4.32;2.20;;;28.20;25.00;;;;;;4936265;29;20183;-77
2023/04/04 09:26:05;;;;;;;4.40;2.20;;;28.20;24.60;;;;;;4935347;29;20226;-77
2023/04/04 09:28:33;;;;;;;4.68;1.90;;;27.90;24.40;;;;;;4936906;29;20234;-77
2023/04/04 09:31:04;;;;;;;4.88;2.10;;;27.90;24.30;;;;;;4936480;29;20187;-78
2023/04/04 09:33:32;;;;;;;6.53;2.38;;;27.60;24.40;;;;;;4950823;29;20195;-77
2023/04/04 09:36:01;;;;;;;5.85;2.40;;;27.00;24.70;;;;;;4935986;29;20179;-77
2023/04/04 09:38:29;;;;;;;5.40;2.17;;;25.70;25.60;;;;;;4935711;29;20179;-77
2023/04/04 09:40:55;;;;;;;6.15;2.20;;;23.90;25.90;;;;;;4936093;29;20239;-76
2023/04/04 09:43:23;;;;;;;4.40;2.35;;;21.90;27.10;;;;;;4936078;29;20202;-77
2023/04/04 09:45:50;;;;;;;6.00;2.10;;;20.10;28.70;;;;;;4935656;29;20202;-77
2023/04/04 09:48:27;;;;;;;5.55;2.38;;;18.80;30.30;;;;;;4935869;29;20310;-76
2023/04/04 09:50:53;;;;;;;5.93;2.13;;;17.70;32.20;;;;;;4936306;29;20259;-75
2023/04/04 09:53:19;;;;;;;4.30;2.20;;;16.80;33.60;;;;;;4936341;29;20195;-75
2023/04/04 09:55:53;;;;;;;9.40;2.33;;;16.20;34.80;;;;;;4951748;29;20176;-84
2023/04/04 09:58:26;;;;;;;5.75;2.35;;;15.60;35.80;;;;;;4936204;29;20183;-76
2023/04/04 10:00:59;;;;;;;5.60;2.40;;;15.20;36.80;;;;;;4935786;29;20168;-76
2023/04/04 10:03:26;;;;;;;8.18;2.60;;;14.80;37.50;;;;;;4935647;29;20629;-81
2023/04/04 10:06:11;;;;;;;6.20;2.80;;;14.60;38.20;;;;;;4935145;29;20739;-75
2023/04/04 10:08:40;;;;;;;7.68;2.67;;;14.40;39.10;;;;;;4936105;29;20224;-76
2023/04/04 10:11:06;;;;;;;5.75;2.25;;;14.40;39.50;;;;;;4934447;29;20222;-76
2023/04/04 10:13:35;;;;;;;7.00;2.28;;;14.10;39.70;;;;;;4934071;29;20195;-81
2023/04/04 10:16:02;;;;;;;5.55;2.10;;;14.00;40.10;;;;;;4935388;29;20190;-76
2023/04/04 10:18:33;;;;;;;7.80;2.75;;;14.10;40.50;;;;;;4935947;29;20270;-75
2023/04/04 10:21:04;;;;;;;8.32;2.58;;;14.10;40.70;;;;;;4935848;29;20188;-77
2023/04/04 10:23:30;;;;;;;6.07;2.60;;;13.90;40.80;;;;;;4935564;29;20288;-81
2023/04/04 10:25:57;;;;;;;9.40;2.53;;;13.80;41.20;;;;;;4935525;29;20187;-77
2023/04/04 10:28:25;;;;;;;8.25;2.80;;;13.70;41.50;;;;;;4934273;29;20322;-77
2023/04/04 10:31:16;;;;;;;11.73;3.10;;;13.80;41.80;;;;;;4936204;29;20183;-76
2023/04/04 10:34:08;;;;;;;4.78;2.55;;;14.00;41.90;;;;;;4936109;29;20176;-77
2023/04/04 10:36:44;;;;;;;5.45;2.63;;;14.00;42.00;;;;;;4935389;29;20255;-75
2023/04/04 10:39:19;;;;;;;6.20;2.88;;;14.30;42.60;;;;;;4935639;29;20676;-76
2023/04/04 10:41:47;;;;;;;5.85;2.88;;;14.40;41.90;;;;;;4951064;29;20531;-77
2023/04/04 10:44:29;;;;;;;7.93;3.10;;;14.50;41.90;;;;;;4935597;29;20651;-76
2023/04/04 10:46:57;;;;;;;5.38;2.90;;;14.60;42.00;;;;;;4934358;29;20175;-78
2023/04/04 10:49:23;;;;;;;8.05;2.83;;;14.60;41.60;;;;;;4935351;29;20179;-75
2023/04/04 10:51:51;;;;;;;8.50;3.35;;;14.90;41.60;;;;;;4935371;29;20667;-76
2023/04/04 10:54:17;;;;;;;7.13;2.83;;;15.20;41.30;;;;;;4936780;29;20200;-76
2023/04/04 10:56:43;;;;;;;58.88;12.85;;;15.20;40.90;;;;;;4938906;29;20215;-76
2023/04/04 10:59:14;;;;;;;9.45;3.40;;;15.30;41.00;;;;;;4938767;29;20218;-77
2023/04/04 11:02:01;;;;;;;6.25;3.05;;;15.40;41.00;;;;;;4938172;29;20183;-77
2023/04/04 11:04:36;;;;;;;5.72;2.70;;;15.60;40.60;;;;;;4938572;29;20172;-79
2023/04/04 11:07:16;;;;;;;7.07;2.70;;;15.60;40.50;;;;;;4953522;29;20648;-76
2023/04/04 11:09:50;;;;;;;7.97;2.97;;;15.60;40.60;;;;;;4953260;29;20557;-75
2023/04/04 11:12:20;;;;;;;5.15;2.53;;;15.60;40.40;;;;;;4938854;29;20270;-75
2023/04/04 11:14:56;;;;;;;6.13;2.70;;;15.60;40.20;;;;;;4939001;29;20671;-83
2023/04/04 11:17:47;;;;;;;7.18;2.80;;;15.50;40.20;;;;;;4945102;29;20546;-74
2023/04/04 11:20:20;;;;;;;3.28;2.08;;;15.30;40.00;;;;;;4938648;29;20175;-80
2023/04/04 11:22:48;;;;;;;5.47;2.70;;;15.20;40.30;;;;;;4938445;29;20187;-74
2023/04/04 11:25:26;;;;;;;5.22;2.80;;;15.10;40.50;;;;;;4937285;29;20231;-75
2023/04/04 11:27:56;;;;;;;10.93;2.85;;;15.00;40.30;;;;;;4952751;29;20591;-75
2023/04/04 11:30:22;;;;;;;7.80;2.70;;;15.10;40.30;;;;;;4938593;29;20183;-74
2023/04/04 11:32:48;;;;;;;4.93;2.55;;;15.10;40.40;;;;;;4938290;29;20238;-75
2023/04/04 11:35:15;;;;;;;6.43;2.38;;;15.20;40.40;;;;;;4937519;29;20184;-77
2023/04/04 11:37:59;;;;;;;5.93;2.47;;;15.20;40.20;;;;;;4938045;29;20175;-77
2023/04/04 11:40:40;;;;;;;6.03;2.45;;;15.10;40.20;;;;;;4938330;29;20166;-76
2023/04/04 11:43:13;;;;;;;6.07;2.65;;;15.10;40.00;;;;;;4936992;29;20187;-74
2023/04/04 11:45:46;;;;;;;4.00;2.50;;;14.90;39.90;;;;;;4937765;29;20251;-75
2023/04/04 11:48:14;;;;;;;5.28;2.58;;;14.70;39.90;;;;;;4936756;29;20183;-75
2023/04/04 11:50:48;;;;;;;4.13;2.60;;;14.80;40.30;;;;;;4937298;29;20219;-77
2023/04/04 11:53:14;;;;;;;5.10;2.40;;;14.70;40.20;;;;;;4938036;29;20199;-75
2023/04/04 11:55:47;;;;;;;4.18;2.35;;;14.80;40.40;;;;;;4936360;29;20239;-74
2023/04/04 11:58:15;;;;;;;9.50;2.90;;;15.00;40.60;;;;;;4936469;29;20653;-77
2023/04/04 12:00:42;;;;;;;6.68;2.70;;;15.10;40.50;;;;;;4938155;29;20184;-77
2023/04/04 12:03:11;;;;;;;5.30;2.90;;;15.10;40.30;;;;;;4952256;29;20635;-80
2023/04/04 12:05:42;;;;;;;5.43;2.40;;;15.10;40.20;;;;;;4920074;29;20724;-76
2023/04/04 12:08:10;;;;;;;8.00;2.88;;;15.00;39.90;;;;;;4937930;29;20179;-76
2023/04/04 12:10:37;;;;;;;4.43;2.60;;;14.80;40.10;;;;;;4952035;29;20191;-82
2023/04/04 12:13:08;;;;;;;4.97;2.80;;;14.80;40.30;;;;;;4937299;29;20266;-75
2023/04/04 12:15:35;;;;;;;5.50;2.97;;;14.70;40.00;;;;;;4937889;29;20534;-74
2023/04/04 12:18:05;;;;;;;5.80;2.88;;;14.60;40.60;;;;;;4937202;29;20207;-75
2023/04/04 12:20:31;;;;;;;10.40;3.05;;;14.40;40.90;;;;;;4937249;29;20188;-78
2023/04/04 12:22:56;;;;;;;8.30;2.80;;;14.40;41.00;;;;;;4936854;29;20246;-78
2023/04/04 12:25:23;;;;;;;7.70;3.25;;;14.50;41.00;;;;;;4936811;29;20194;-78
2023/04/04 12:27:50;;;;;;;7.75;3.00;;;14.60;40.80;;;;;;4935998;29;20671;-78
2023/04/04 12:30:17;;;;;;;6.32;3.13;;;14.60;40.70;;;;;;4937223;29;20183;-76
2023/04/04 12:32:44;;;;;;;6.55;3.08;;;14.70;40.60;;;;;;4935142;29;20211;-79
2023/04/04 12:35:12;;;;;;;4.97;2.83;;;14.70;40.30;;;;;;4951945;28;20258;-76
2023/04/04 12:37:39;;;;;;;4.85;2.90;;;14.50;40.30;;;;;;4937379;29;20183;-78
2023/04/04 12:40:06;;;;;;;6.38;3.03;;;14.40;40.50;;;;;;4936300;29;20539;-76
2023/04/04 12:42:34;;;;;;;8.23;3.10;;;14.40;40.70;;;;;;4936924;29;20223;-81
2023/04/04 12:45:02;;;;;;;8.85;3.30;;;14.30;41.10;;;;;;4936410;29;20192;-76
2023/04/04 12:47:30;;;;;;;9.43;3.25;;;14.20;41.20;;;;;;4936701;29;20187;-75
2023/04/04 12:49:56;;;;;;;7.15;3.33;;;14.30;41.60;;;;;;4935809;29;20175;-75
2023/04/04 12:52:31;;;;;;;5.45;3.00;;;14.20;41.70;;;;;;4936316;29;20218;-75
2023/04/04 12:54:59;;;;;;;6.32;3.55;;;14.20;41.50;;;;;;4936561;29;20278;-76
2023/04/04 12:57:26;;;;;;;7.38;3.22;;;14.10;41.30;;;;;;4936959;29;20271;-76